Terminal Aerodrome Forecast
Issued by NWS

Home | Current Version | Previous Version | Text Only | Print | Product List | Glossary Off
Versions: 1 2 3 4 5 6 7 8 9 10 11 12 13 14

000
FTUS43 KICT 252300
TAFHUT
TAF
KHUT 252320Z 2600/2624 21017G23KT P6SM SCT150
     FM260200 18012KT P6SM SCT150
     FM261600 21014G20KT P6SM BKN150=

USA.gov is the U.S. government's official web portal to all federal, state and local government web resources and services.